createdAt,value
2023-03-31T00:02:13.901Z,67.20
2023-03-31T00:04:52.872Z,66.99
2023-03-31T00:07:22.233Z,67.43
2023-03-31T00:09:49.046Z,67.33
2023-03-31T00:12:16.798Z,67.45
2023-03-31T00:14:44.070Z,67.38
2023-03-31T00:17:13.297Z,67.39
2023-03-31T00:19:41.883Z,67.34
2023-03-31T00:22:08.846Z,67.17
2023-03-31T00:24:35.940Z,67.28
2023-03-31T00:27:04.060Z,67.16
2023-03-31T00:29:31.637Z,67.29
2023-03-31T00:31:59.865Z,67.16
2023-03-31T00:34:27.160Z,67.61
2023-03-31T00:36:56.806Z,67.73
2023-03-31T00:39:29.409Z,67.75
2023-03-31T00:41:56.198Z,67.29
2023-03-31T00:44:24.980Z,67.36
2023-03-31T00:46:57.130Z,67.69
2023-03-31T00:49:27.317Z,67.66
2023-03-31T00:51:55.359Z,67.77
2023-03-31T00:54:23.548Z,67.39
2023-03-31T00:56:53.325Z,67.37
2023-03-31T00:59:20.856Z,67.44
2023-03-31T01:01:50.685Z,67.44
2023-03-31T01:04:22.928Z,67.73
2023-03-31T01:07:25.790Z,67.72
2023-03-31T01:09:54.395Z,67.56
2023-03-31T01:12:22.599Z,67.71
2023-03-31T01:14:51.658Z,67.72
2023-03-31T01:17:21.845Z,67.49
2023-03-31T01:20:14.731Z,67.51
2023-03-31T01:22:41.654Z,67.60
2023-03-31T01:25:28.218Z,67.45
2023-03-31T01:27:58.067Z,67.88
2023-03-31T01:30:24.851Z,67.69
2023-03-31T01:32:51.694Z,67.88
2023-03-31T01:35:21.341Z,67.59
2023-03-31T01:37:54.201Z,67.96
2023-03-31T01:40:23.828Z,68.02
2023-03-31T01:42:54.549Z,67.86
2023-03-31T01:45:27.709Z,67.83
2023-03-31T01:47:59.930Z,67.54
2023-03-31T01:50:43.737Z,67.52
2023-03-31T01:53:29.303Z,67.83
2023-03-31T01:55:59.354Z,67.58
2023-03-31T01:58:33.180Z,67.66
2023-03-31T02:01:03.800Z,67.45
2023-03-31T02:03:38.144Z,67.81
2023-03-31T02:06:12.517Z,67.62
2023-03-31T02:08:44.934Z,67.57
2023-03-31T02:11:12.265Z,67.46
2023-03-31T02:13:41.629Z,67.70
2023-03-31T02:16:12.143Z,68.07
2023-03-31T02:18:41.842Z,67.74
2023-03-31T02:21:11.116Z,67.99
2023-03-31T02:23:38.713Z,68.05
2023-03-31T02:26:12.197Z,68.01
2023-03-31T02:28:40.245Z,68.09
2023-03-31T02:31:17.320Z,68.03
2023-03-31T02:33:44.140Z,68.12
2023-03-31T02:36:11.524Z,67.94
2023-03-31T02:38:42.248Z,67.80
2023-03-31T02:41:09.709Z,67.77
2023-03-31T02:43:36.479Z,67.76
2023-03-31T02:46:03.593Z,67.82
2023-03-31T02:48:32.771Z,68.00
2023-03-31T02:50:59.698Z,67.91
2023-03-31T02:53:26.601Z,68.09
2023-03-31T02:56:00.672Z,67.99
2023-03-31T02:58:30.691Z,67.87
2023-03-31T03:01:03.627Z,67.85
2023-03-31T03:03:31.766Z,68.04
2023-03-31T03:05:59.088Z,67.73
2023-03-31T03:08:50.466Z,67.50
2023-03-31T03:11:32.422Z,67.74
2023-03-31T03:14:25.449Z,67.58
2023-03-31T03:16:55.392Z,67.55
2023-03-31T03:19:23.464Z,67.41
2023-03-31T03:21:50.841Z,67.51
2023-03-31T03:24:18.092Z,67.57
2023-03-31T03:26:45.764Z,67.70
2023-03-31T03:29:16.058Z,67.65
2023-03-31T03:31:43.079Z,67.60
2023-03-31T03:34:10.365Z,67.75
2023-03-31T03:36:38.145Z,67.62
2023-03-31T03:39:06.278Z,67.91
2023-03-31T03:41:33.487Z,67.96
2023-03-31T03:44:00.779Z,68.07
2023-03-31T03:46:27.948Z,68.44
2023-03-31T03:48:54.904Z,68.36
2023-03-31T03:51:22.401Z,68.48
2023-03-31T03:53:49.388Z,68.18
2023-03-31T03:56:16.157Z,67.92
2023-03-31T03:58:42.929Z,68.26
2023-03-31T04:01:09.706Z,68.04
2023-03-31T04:03:36.534Z,67.79
2023-03-31T04:06:03.826Z,68.12
2023-03-31T04:08:31.070Z,67.75
2023-03-31T04:10:57.948Z,67.71
2023-03-31T04:13:24.740Z,68.12
2023-03-31T04:15:51.637Z,67.74
2023-03-31T04:18:24.297Z,67.66
2023-03-31T04:21:04.174Z,67.77
2023-03-31T04:23:32.114Z,67.98
2023-03-31T04:25:59.272Z,67.78
2023-03-31T04:28:26.829Z,68.10
2023-03-31T04:30:55.022Z,67.81
2023-03-31T04:33:23.578Z,68.36
2023-03-31T04:35:50.629Z,68.42
2023-03-31T04:38:18.971Z,68.60
2023-03-31T04:40:47.069Z,68.26
2023-03-31T04:43:14.368Z,68.44
2023-03-31T04:45:41.270Z,68.04
2023-03-31T04:48:08.598Z,68.39
2023-03-31T04:50:36.115Z,68.53
2023-03-31T04:53:03.596Z,68.15
2023-03-31T04:55:30.734Z,67.87
2023-03-31T04:57:57.560Z,68.33
2023-03-31T05:00:24.489Z,68.57
2023-03-31T05:02:51.827Z,67.87
2023-03-31T05:05:18.764Z,68.06
2023-03-31T05:07:46.303Z,68.28
2023-03-31T05:10:13.275Z,68.18
2023-03-31T05:12:40.272Z,67.93
2023-03-31T05:15:07.839Z,68.22
2023-03-31T05:17:35.914Z,67.84
2023-03-31T05:20:06.949Z,68.01
2023-03-31T05:22:37.347Z,68.16
2023-03-31T05:25:05.312Z,67.96
2023-03-31T05:27:32.299Z,67.43
2023-03-31T05:29:59.343Z,67.91
2023-03-31T05:32:27.535Z,68.25
2023-03-31T05:34:57.248Z,67.69
2023-03-31T05:37:25.160Z,67.56
2023-03-31T05:39:52.009Z,67.89
2023-03-31T05:42:19.304Z,67.51
2023-03-31T05:44:46.215Z,67.41
2023-03-31T05:47:13.485Z,67.44
2023-03-31T05:49:40.784Z,67.80
2023-03-31T05:52:08.294Z,67.44
2023-03-31T05:54:35.535Z,67.03
2023-03-31T05:57:02.723Z,67.59
2023-03-31T05:59:29.714Z,67.58
2023-03-31T06:01:56.932Z,67.35
2023-03-31T06:04:24.565Z,67.49
2023-03-31T06:06:51.526Z,67.17
2023-03-31T06:09:18.516Z,67.39
2023-03-31T06:11:46.151Z,67.64
2023-03-31T06:14:12.987Z,67.76
2023-03-31T06:16:39.871Z,67.92
2023-03-31T06:19:06.786Z,67.92
2023-03-31T06:21:34.111Z,67.77
2023-03-31T06:24:07.161Z,67.79
2023-03-31T06:26:33.908Z,67.67
2023-03-31T06:29:00.801Z,67.61
2023-03-31T06:31:27.599Z,67.72
2023-03-31T06:33:55.143Z,67.12
2023-03-31T06:36:25.473Z,67.37
2023-03-31T06:38:52.641Z,67.14
2023-03-31T06:41:21.127Z,66.92
2023-03-31T06:43:48.511Z,67.14
2023-03-31T06:46:16.331Z,66.87
2023-03-31T06:48:44.945Z,66.95
2023-03-31T06:51:12.010Z,66.66
2023-03-31T06:53:38.777Z,66.86
2023-03-31T06:56:15.674Z,66.84
2023-03-31T06:58:42.546Z,67.00
2023-03-31T07:01:11.577Z,67.14
2023-03-31T07:03:39.679Z,66.63
2023-03-31T07:06:06.795Z,66.77
2023-03-31T07:08:33.700Z,66.58
2023-03-31T07:11:01.499Z,66.29
2023-03-31T07:13:31.776Z,66.29
2023-03-31T07:15:58.652Z,66.05
2023-03-31T07:18:35.547Z,66.51
2023-03-31T07:21:02.884Z,66.58
2023-03-31T07:23:29.885Z,66.23
2023-03-31T07:25:58.153Z,66.00
2023-03-31T07:28:25.120Z,66.29
2023-03-31T07:30:52.057Z,66.45
2023-03-31T07:33:18.807Z,66.78
2023-03-31T07:35:47.006Z,66.66
2023-03-31T07:38:18.539Z,66.76
2023-03-31T07:40:49.080Z,66.72
2023-03-31T07:43:22.685Z,66.43
2023-03-31T07:45:49.571Z,66.36
2023-03-31T07:48:16.527Z,66.36
2023-03-31T07:50:43.368Z,66.48
2023-03-31T07:53:18.778Z,66.31
2023-03-31T07:55:47.061Z,66.58
2023-03-31T07:58:13.953Z,66.39
2023-03-31T08:00:40.922Z,66.22
2023-03-31T08:03:07.954Z,65.74
2023-03-31T08:05:34.848Z,66.04
2023-03-31T08:08:02.099Z,66.26
2023-03-31T08:10:29.003Z,66.14
2023-03-31T08:12:56.121Z,65.97
2023-03-31T08:15:23.115Z,65.48
2023-03-31T08:17:52.862Z,65.49
2023-03-31T08:20:19.763Z,65.24
2023-03-31T08:22:46.601Z,65.13
2023-03-31T08:25:13.579Z,64.83
2023-03-31T08:27:41.173Z,65.21
2023-03-31T08:30:09.308Z,65.33
2023-03-31T08:32:36.302Z,64.92
2023-03-31T08:35:03.252Z,65.27
2023-03-31T08:37:30.261Z,64.19
2023-03-31T08:39:57.066Z,65.01
2023-03-31T08:42:33.102Z,65.15
2023-03-31T08:44:59.933Z,65.08
2023-03-31T08:47:27.853Z,63.91
2023-03-31T08:49:58.923Z,63.27
2023-03-31T08:52:34.249Z,64.11
2023-03-31T08:55:04.288Z,64.59
2023-03-31T08:57:36.608Z,63.79
2023-03-31T09:00:07.349Z,63.77
2023-03-31T09:02:55.744Z,63.28
2023-03-31T09:06:00.751Z,62.76
2023-03-31T09:08:36.507Z,63.68
2023-03-31T09:11:09.132Z,64.26
2023-03-31T09:13:52.428Z,64.50
2023-03-31T09:16:32.626Z,64.57
2023-03-31T09:19:01.073Z,64.84
2023-03-31T09:21:41.066Z,64.77
2023-03-31T09:24:29.332Z,64.03
2023-03-31T09:27:00.944Z,63.64
2023-03-31T09:29:30.762Z,63.88
2023-03-31T09:32:17.343Z,63.71
2023-03-31T09:34:45.916Z,63.34
2023-03-31T09:37:13.079Z,62.99
2023-03-31T09:39:40.798Z,62.90
2023-03-31T09:42:10.046Z,63.25
2023-03-31T09:44:38.717Z,64.10
2023-03-31T09:47:11.069Z,63.79
2023-03-31T09:49:39.218Z,63.16
2023-03-31T09:52:08.300Z,62.67
2023-03-31T09:54:37.323Z,62.89
2023-03-31T09:57:13.221Z,63.38
2023-03-31T09:59:41.423Z,64.19
2023-03-31T10:02:25.185Z,63.82
2023-03-31T10:04:52.717Z,63.61
2023-03-31T10:07:23.875Z,63.06
2023-03-31T10:09:51.850Z,63.10
2023-03-31T10:12:25.216Z,63.45
2023-03-31T10:14:53.661Z,63.13
2023-03-31T10:17:24.532Z,63.85
2023-03-31T10:19:54.751Z,63.84
2023-03-31T10:22:21.724Z,63.66
2023-03-31T10:24:50.010Z,63.82
2023-03-31T10:27:27.168Z,63.16
2023-03-31T10:30:04.261Z,62.91
2023-03-31T10:32:32.823Z,62.74
2023-03-31T10:35:06.490Z,62.57
2023-03-31T10:37:35.870Z,63.81
2023-03-31T10:40:13.572Z,63.91
2023-03-31T10:42:40.594Z,63.83
2023-03-31T10:45:23.389Z,64.06
2023-03-31T10:48:01.538Z,64.08
2023-03-31T10:50:32.544Z,63.34
2023-03-31T10:53:13.471Z,64.31
2023-03-31T10:55:45.593Z,63.86
2023-03-31T10:58:21.336Z,64.40
2023-03-31T11:00:59.100Z,64.43
2023-03-31T11:03:26.033Z,64.62
2023-03-31T11:06:01.069Z,64.63
2023-03-31T11:09:06.782Z,64.41
2023-03-31T11:11:33.587Z,64.68
2023-03-31T11:14:06.487Z,64.62
2023-03-31T11:17:00.383Z,64.32
2023-03-31T11:19:30.324Z,64.65
2023-03-31T11:22:03.217Z,64.34
2023-03-31T11:25:06.366Z,63.86
2023-03-31T11:27:52.133Z,64.14
2023-03-31T11:30:20.591Z,64.38
2023-03-31T11:32:53.298Z,63.85
2023-03-31T11:35:29.154Z,64.53
2023-03-31T11:38:11.835Z,64.27
2023-03-31T11:40:43.540Z,64.71
2023-03-31T11:43:10.420Z,64.68
2023-03-31T11:45:42.473Z,64.09
2023-03-31T11:48:29.172Z,64.07
2023-03-31T11:50:57.428Z,64.51
2023-03-31T11:53:27.530Z,64.31
2023-03-31T11:55:55.947Z,63.51
2023-03-31T11:58:41.535Z,64.19
2023-03-31T12:01:14.612Z,64.38
2023-03-31T12:04:01.187Z,64.04
2023-03-31T12:06:30.630Z,64.05
2023-03-31T12:09:16.301Z,64.40
2023-03-31T12:11:50.055Z,63.41
2023-03-31T12:14:24.265Z,64.25
2023-03-31T12:17:09.797Z,64.51
2023-03-31T12:19:55.622Z,65.05
2023-03-31T12:22:24.802Z,64.54
2023-03-31T12:24:51.991Z,64.89
2023-03-31T12:27:35.871Z,64.51
2023-03-31T12:30:12.009Z,64.55
2023-03-31T12:32:51.674Z,64.58
2023-03-31T12:35:37.225Z,64.41
2023-03-31T12:38:19.664Z,64.61
2023-03-31T12:41:09.841Z,65.00
2023-03-31T12:43:48.560Z,64.93
2023-03-31T12:46:26.855Z,64.81
2023-03-31T12:48:58.928Z,65.22
2023-03-31T12:51:25.976Z,64.64
2023-03-31T12:54:14.773Z,64.64
2023-03-31T12:57:10.724Z,65.05
2023-03-31T12:59:38.545Z,64.50
2023-03-31T13:02:25.642Z,64.85
2023-03-31T13:04:53.604Z,65.16
2023-03-31T13:07:28.251Z,65.17
2023-03-31T13:09:59.675Z,64.54
2023-03-31T13:12:28.851Z,64.61
2023-03-31T13:15:01.477Z,64.99
2023-03-31T13:17:37.191Z,64.74
2023-03-31T13:20:16.731Z,65.00
2023-03-31T13:22:46.309Z,64.87
2023-03-31T13:25:32.012Z,64.64
2023-03-31T13:28:08.626Z,64.73
2023-03-31T13:30:44.431Z,64.86
2023-03-31T13:33:37.242Z,65.15
2023-03-31T13:36:22.255Z,64.87
2023-03-31T13:38:55.165Z,65.07
2023-03-31T13:41:28.554Z,65.16
2023-03-31T13:44:07.747Z,65.61
2023-03-31T13:46:34.655Z,65.25
2023-03-31T13:49:01.468Z,65.40
2023-03-31T13:51:47.416Z,65.03
2023-03-31T13:54:32.980Z,65.43
2023-03-31T13:57:27.448Z,65.15
2023-03-31T13:59:58.783Z,65.61
2023-03-31T14:02:25.773Z,65.54
2023-03-31T14:05:11.930Z,65.27
2023-03-31T14:07:42.807Z,65.60
2023-03-31T14:10:27.693Z,65.94
2023-03-31T14:13:04.780Z,65.54
2023-03-31T14:15:32.522Z,65.76
2023-03-31T14:17:59.531Z,66.07
2023-03-31T14:20:32.492Z,66.02
2023-03-31T14:23:02.348Z,65.92
2023-03-31T14:25:32.213Z,65.99
2023-03-31T14:28:21.971Z,65.89
2023-03-31T14:30:59.061Z,65.91
2023-03-31T14:33:26.289Z,66.01
2023-03-31T14:35:53.325Z,65.79
2023-03-31T14:38:21.681Z,66.04
2023-03-31T14:41:01.300Z,65.84
2023-03-31T14:43:33.894Z,65.87
2023-03-31T14:46:07.991Z,66.06
2023-03-31T14:48:43.579Z,66.06
2023-03-31T14:51:11.414Z,65.95
2023-03-31T14:53:38.499Z,65.98
2023-03-31T14:56:10.095Z,66.25
2023-03-31T14:58:39.059Z,66.07
2023-03-31T15:01:07.786Z,66.10
2023-03-31T15:03:36.636Z,66.09
2023-03-31T15:06:04.786Z,66.10
2023-03-31T15:08:32.303Z,66.22
2023-03-31T15:11:11.952Z,66.26
2023-03-31T15:14:00.626Z,66.21
2023-03-31T15:16:31.291Z,66.17
2023-03-31T15:18:59.378Z,66.17
2023-03-31T15:21:27.302Z,65.93
2023-03-31T15:23:56.966Z,65.80
2023-03-31T15:26:34.363Z,65.94
2023-03-31T15:29:11.917Z,66.26
2023-03-31T15:31:41.150Z,66.41
2023-03-31T15:34:15.928Z,66.33
2023-03-31T15:36:43.388Z,66.20
2023-03-31T15:39:11.691Z,66.46
2023-03-31T15:41:38.703Z,66.39
2023-03-31T15:44:07.520Z,66.06
2023-03-31T15:46:43.537Z,66.47
2023-03-31T15:49:20.388Z,66.34
2023-03-31T15:51:48.125Z,66.31
2023-03-31T15:54:29.249Z,66.50
2023-03-31T15:56:59.428Z,66.30
2023-03-31T16:02:17.139Z,66.41
2023-03-31T16:04:44.116Z,66.48
2023-03-31T16:07:16.853Z,66.35
2023-03-31T16:09:43.846Z,66.42
2023-03-31T16:12:34.092Z,66.56
2023-03-31T16:15:07.229Z,66.44
2023-03-31T16:17:37.333Z,66.36
2023-03-31T16:20:11.048Z,66.54
2023-03-31T16:22:44.923Z,66.44
2023-03-31T16:25:13.362Z,66.46
2023-03-31T16:27:46.893Z,66.47
2023-03-31T16:30:16.138Z,66.58
2023-03-31T16:33:02.483Z,66.76
2023-03-31T16:35:31.448Z,66.78
2023-03-31T16:37:59.047Z,66.74
2023-03-31T16:40:25.936Z,66.81
2023-03-31T16:43:06.852Z,66.89
2023-03-31T16:45:33.671Z,66.77
2023-03-31T16:48:12.717Z,66.79
2023-03-31T16:50:43.100Z,66.99
2023-03-31T16:53:10.811Z,66.77
2023-03-31T16:55:37.775Z,66.92
2023-03-31T16:58:04.746Z,66.92
2023-03-31T17:00:32.255Z,66.91
2023-03-31T17:02:59.511Z,66.78
2023-03-31T17:05:26.663Z,66.92
2023-03-31T17:07:55.791Z,66.93
2023-03-31T17:10:22.632Z,66.77
2023-03-31T17:12:49.552Z,67.19
2023-03-31T17:15:17.748Z,67.10
2023-03-31T17:17:44.691Z,67.17
2023-03-31T17:20:11.693Z,67.22
2023-03-31T17:22:38.657Z,67.08
2023-03-31T17:25:08.174Z,67.21
2023-03-31T17:27:35.207Z,67.22
2023-03-31T17:30:02.493Z,67.11
2023-03-31T17:32:30.102Z,67.14
2023-03-31T17:34:57.789Z,67.03
2023-03-31T17:37:24.776Z,67.10
2023-03-31T17:39:55.723Z,67.13
2023-03-31T17:42:22.730Z,67.25
2023-03-31T17:44:51.747Z,67.17
2023-03-31T17:47:19.282Z,67.08
2023-03-31T17:49:46.519Z,67.23
2023-03-31T17:52:13.664Z,67.20
2023-03-31T17:54:40.715Z,67.09
2023-03-31T17:57:07.852Z,67.08
2023-03-31T17:59:37.564Z,67.10
2023-03-31T18:02:06.133Z,67.34
2023-03-31T18:04:33.152Z,67.04
2023-03-31T18:07:00.513Z,67.25
2023-03-31T18:09:28.329Z,67.07
2023-03-31T18:11:55.225Z,67.05
2023-03-31T18:14:22.650Z,67.33
2023-03-31T18:16:51.317Z,67.25
2023-03-31T18:19:18.172Z,66.86
2023-03-31T18:21:44.943Z,67.29
2023-03-31T18:24:11.880Z,67.25
2023-03-31T18:26:38.667Z,66.90
2023-03-31T18:29:05.430Z,67.16
2023-03-31T18:31:32.423Z,67.18
2023-03-31T18:33:59.369Z,67.12
2023-03-31T18:36:28.640Z,67.24
2023-03-31T18:38:55.958Z,67.22
2023-03-31T18:41:24.152Z,67.11
2023-03-31T18:43:52.348Z,67.15
2023-03-31T18:46:19.851Z,67.42
2023-03-31T18:48:46.851Z,67.19
2023-03-31T18:51:14.658Z,67.07
2023-03-31T18:53:41.990Z,67.24
2023-03-31T18:56:09.517Z,67.42
2023-03-31T18:58:37.382Z,67.60
2023-03-31T19:01:04.486Z,67.36
2023-03-31T19:03:31.642Z,67.35
2023-03-31T19:06:05.705Z,67.26
2023-03-31T19:08:32.571Z,67.27
2023-03-31T19:11:12.896Z,67.20
2023-03-31T19:13:42.209Z,67.43
2023-03-31T19:16:13.421Z,67.20
2023-03-31T19:18:42.655Z,67.00
2023-03-31T19:21:09.784Z,67.25
2023-03-31T19:23:36.674Z,67.19
2023-03-31T19:26:03.971Z,67.16
2023-03-31T19:28:33.941Z,67.39
2023-03-31T19:31:02.927Z,67.23
2023-03-31T19:33:29.662Z,67.35
2023-03-31T19:35:56.623Z,67.33
2023-03-31T19:38:25.656Z,67.58
2023-03-31T19:40:57.732Z,67.40
2023-03-31T19:43:25.101Z,67.32
2023-03-31T19:45:57.683Z,67.50
2023-03-31T19:48:26.680Z,67.39
2023-03-31T19:50:54.815Z,67.24
2023-03-31T19:53:22.222Z,67.54
2023-03-31T19:55:56.547Z,67.43
2023-03-31T19:58:23.451Z,67.52
2023-03-31T20:00:53.774Z,67.34
2023-03-31T20:03:21.563Z,67.35
2023-03-31T20:05:48.477Z,67.58
2023-03-31T20:08:15.390Z,67.58
2023-03-31T20:10:44.375Z,67.38
2023-03-31T20:13:11.422Z,67.41
2023-03-31T20:15:40.425Z,67.58
2023-03-31T20:18:08.577Z,67.60
2023-03-31T20:20:35.661Z,67.47
2023-03-31T20:23:04.005Z,67.45
2023-03-31T20:25:31.152Z,67.61
2023-03-31T20:27:58.224Z,67.78
2023-03-31T20:30:25.088Z,67.48
2023-03-31T20:32:51.978Z,67.47
2023-03-31T20:35:19.067Z,67.64
2023-03-31T20:37:45.862Z,67.62
2023-03-31T20:40:12.691Z,67.44
2023-03-31T20:42:39.504Z,67.52
2023-03-31T20:45:07.056Z,67.58
2023-03-31T20:47:35.415Z,67.52
2023-03-31T20:50:02.748Z,67.69
2023-03-31T20:52:29.608Z,67.47
2023-03-31T20:54:56.621Z,67.67
2023-03-31T20:57:25.720Z,67.60
2023-03-31T20:59:52.595Z,67.63
2023-03-31T21:02:19.709Z,67.55
2023-03-31T21:04:47.272Z,67.72
2023-03-31T21:07:15.281Z,67.61
2023-03-31T21:09:42.238Z,67.65
2023-03-31T21:12:09.073Z,67.49
2023-03-31T21:14:35.912Z,67.50
2023-03-31T21:17:03.067Z,67.76
2023-03-31T21:19:29.986Z,67.72
2023-03-31T21:21:56.893Z,67.51
2023-03-31T21:24:23.922Z,67.80
2023-03-31T21:26:50.835Z,67.65
2023-03-31T21:29:17.613Z,67.68
2023-03-31T21:31:46.110Z,67.68
2023-03-31T21:34:12.931Z,67.71
2023-03-31T21:36:39.924Z,67.69
2023-03-31T21:39:06.769Z,67.70
2023-03-31T21:41:33.896Z,67.81
2023-03-31T21:44:02.709Z,67.75
2023-03-31T21:46:31.088Z,67.71
2023-03-31T21:48:58.121Z,67.73
2023-03-31T21:51:25.822Z,67.70
2023-03-31T21:53:56.093Z,67.92
2023-03-31T21:56:24.021Z,67.73
2023-03-31T21:58:51.191Z,67.88
2023-03-31T22:01:18.696Z,67.92
2023-03-31T22:03:46.044Z,67.92
2023-03-31T22:06:12.896Z,67.91
2023-03-31T22:08:39.825Z,67.89
2023-03-31T22:11:08.416Z,67.88
2023-03-31T22:13:35.980Z,67.82
2023-03-31T22:16:03.204Z,67.82
2023-03-31T22:18:30.669Z,67.81
2023-03-31T22:20:57.649Z,67.81
2023-03-31T22:23:24.644Z,68.09
2023-03-31T22:25:51.440Z,67.95
2023-03-31T22:28:18.406Z,67.91
2023-03-31T22:30:45.330Z,67.82
2023-03-31T22:33:12.842Z,68.05
2023-03-31T22:35:39.791Z,67.95
2023-03-31T22:38:08.549Z,67.86
2023-03-31T22:40:36.037Z,68.07
2023-03-31T22:43:03.097Z,68.03
2023-03-31T22:45:29.888Z,67.76
2023-03-31T22:47:57.155Z,68.06
2023-03-31T22:50:24.246Z,67.88
2023-03-31T22:52:52.154Z,68.09
2023-03-31T22:55:19.199Z,68.10
2023-03-31T22:57:46.314Z,68.09
2023-03-31T23:00:13.904Z,67.98
2023-03-31T23:02:41.345Z,67.86
2023-03-31T23:05:08.401Z,67.81
2023-03-31T23:07:35.274Z,68.19
2023-03-31T23:10:02.394Z,68.15
2023-03-31T23:12:29.868Z,68.04
2023-03-31T23:14:56.674Z,68.00
2023-03-31T23:17:23.727Z,67.97
2023-03-31T23:19:51.370Z,68.06
2023-03-31T23:22:19.015Z,68.18
2023-03-31T23:24:48.433Z,67.95
2023-03-31T23:27:15.263Z,68.06
2023-03-31T23:29:42.420Z,68.01
2023-03-31T23:32:09.920Z,67.97
2023-03-31T23:34:41.608Z,68.01
2023-03-31T23:37:09.608Z,68.10
2023-03-31T23:39:38.892Z,68.23
2023-03-31T23:42:06.488Z,68.33
2023-03-31T23:44:33.480Z,68.06
2023-03-31T23:47:00.283Z,68.23
2023-03-31T23:49:27.205Z,68.25
2023-03-31T23:51:54.352Z,68.32
2023-03-31T23:54:21.269Z,68.10
2023-03-31T23:56:48.628Z,68.21
2023-03-31T23:59:16.298Z,68.33
